createdAt,value
2023-01-15T00:02:27.964Z,97945.00
2023-01-15T00:05:15.583Z,97954.00
2023-01-15T00:08:03.133Z,97951.00
2023-01-15T00:10:50.771Z,97955.00
2023-01-15T00:13:38.895Z,97951.00
2023-01-15T00:16:28.354Z,97942.00
2023-01-15T00:19:16.054Z,97952.00
2023-01-15T00:22:03.900Z,97936.00
2023-01-15T00:25:10.092Z,97935.00
2023-01-15T00:27:57.743Z,97943.00
2023-01-15T00:30:45.310Z,97939.00
2023-01-15T00:33:32.862Z,97926.00
2023-01-15T00:36:20.592Z,97933.00
2023-01-15T00:39:08.092Z,97926.00
2023-01-15T00:41:56.610Z,97922.00
2023-01-15T00:44:44.617Z,97915.00
2023-01-15T00:47:32.145Z,97917.00
2023-01-15T00:50:19.854Z,97913.00
2023-01-15T00:53:07.277Z,97921.00
2023-01-15T00:55:54.915Z,97907.00
2023-01-15T00:58:42.726Z,97915.00
2023-01-15T01:01:30.529Z,97904.00
2023-01-15T01:04:18.342Z,97893.00
2023-01-15T01:07:06.041Z,97902.00
2023-01-15T01:09:53.516Z,97912.00
2023-01-15T01:12:41.609Z,97911.00
2023-01-15T01:15:29.313Z,97894.00
2023-01-15T01:18:16.798Z,97885.00
2023-01-15T01:21:05.915Z,97886.00
2023-01-15T01:23:54.033Z,97879.00
2023-01-15T01:26:44.093Z,97874.00
2023-01-15T01:29:31.734Z,97876.00
2023-01-15T01:32:19.273Z,97874.00
2023-01-15T01:35:07.235Z,97882.00
2023-01-15T01:37:54.670Z,97888.00
2023-01-15T01:40:42.747Z,97872.00
2023-01-15T01:43:31.477Z,97863.00
2023-01-15T01:46:19.519Z,97859.00
2023-01-15T01:49:13.238Z,97860.00
2023-01-15T01:52:15.298Z,97840.00
2023-01-15T01:55:04.537Z,97840.00
2023-01-15T01:57:58.669Z,97829.00
2023-01-15T02:00:52.238Z,97829.00
2023-01-15T02:03:40.314Z,97818.00
2023-01-15T02:06:29.782Z,97822.00
2023-01-15T02:09:17.479Z,97821.00
2023-01-15T02:12:19.924Z,97817.00
2023-01-15T02:15:19.698Z,97812.00
2023-01-15T02:18:30.326Z,97810.00
2023-01-15T02:21:44.208Z,97816.00
2023-01-15T02:24:52.686Z,97817.00
2023-01-15T02:27:48.713Z,97824.00
2023-01-15T02:30:47.862Z,97807.00
2023-01-15T02:34:20.518Z,97807.00
2023-01-15T02:37:16.822Z,97805.00
2023-01-15T02:40:07.687Z,97801.00
2023-01-15T02:42:58.787Z,97800.00
2023-01-15T02:45:52.373Z,97808.00
2023-01-15T02:48:45.097Z,97802.00
2023-01-15T02:52:12.983Z,97808.00
2023-01-15T02:55:20.655Z,97796.00
2023-01-15T02:58:14.914Z,97793.00
2023-01-15T03:01:19.561Z,97788.00
2023-01-15T03:04:31.153Z,97780.00
2023-01-15T03:07:53.430Z,97765.00
2023-01-15T03:11:06.329Z,97767.00
2023-01-15T03:14:06.356Z,97752.00
2023-01-15T03:17:01.698Z,97748.00
2023-01-15T03:19:58.316Z,97752.00
2023-01-15T03:22:53.894Z,97749.00
2023-01-15T03:25:49.261Z,97742.00
2023-01-15T03:28:39.812Z,97746.00
2023-01-15T03:31:29.314Z,97725.00
2023-01-15T03:34:17.043Z,97717.00
2023-01-15T03:37:05.039Z,97725.00
2023-01-15T03:39:53.678Z,97731.00
2023-01-15T03:43:19.751Z,97723.00
2023-01-15T03:46:20.752Z,97725.00
2023-01-15T03:49:37.797Z,97739.00
2023-01-15T03:52:45.617Z,97738.00
2023-01-15T03:56:06.383Z,97718.00
2023-01-15T03:59:37.583Z,97726.00
2023-01-15T04:02:27.328Z,97737.00
2023-01-15T04:05:17.194Z,97753.00
2023-01-15T04:08:06.326Z,97751.00
2023-01-15T04:11:02.751Z,97752.00
2023-01-15T04:13:51.004Z,97757.00
2023-01-15T04:16:38.503Z,97783.00
2023-01-15T04:19:26.838Z,97782.00
2023-01-15T04:22:14.301Z,97778.00
2023-01-15T04:25:05.945Z,97781.00
2023-01-15T04:27:57.178Z,97817.00
2023-01-15T04:30:44.711Z,97816.00
2023-01-15T04:33:32.408Z,97788.00
2023-01-15T04:36:20.100Z,97775.00
2023-01-15T04:39:07.600Z,97766.00
2023-01-15T04:42:13.846Z,97736.00
2023-01-15T04:45:01.510Z,97729.00
2023-01-15T04:47:49.102Z,97694.00
2023-01-15T04:50:38.479Z,97670.00
2023-01-15T04:53:27.134Z,97675.00
2023-01-15T04:56:14.674Z,97677.00
2023-01-15T04:59:03.324Z,97668.00
2023-01-15T05:02:03.255Z,97662.00
2023-01-15T05:04:52.873Z,97632.00
2023-01-15T05:07:40.645Z,97630.00
2023-01-15T05:10:28.188Z,97637.00
2023-01-15T05:13:15.593Z,97634.00
2023-01-15T05:16:16.558Z,97628.00
2023-01-15T05:19:07.669Z,97626.00
2023-01-15T05:21:55.499Z,97633.00
2023-01-15T05:24:43.120Z,97608.00
2023-01-15T05:27:31.799Z,97612.00
2023-01-15T05:30:19.412Z,97612.00
2023-01-15T05:33:06.912Z,97587.00
2023-01-15T05:35:54.729Z,97587.00
2023-01-15T05:38:43.147Z,97591.00
2023-01-15T05:41:49.277Z,97597.00
2023-01-15T05:44:37.056Z,97597.00
2023-01-15T05:47:24.560Z,97587.00
2023-01-15T05:50:12.271Z,97584.00
2023-01-15T05:52:59.828Z,97583.00
2023-01-15T05:55:47.293Z,97571.00
2023-01-15T05:58:35.522Z,97553.00
2023-01-15T06:01:23.925Z,97560.00
2023-01-15T06:04:14.538Z,97543.00
2023-01-15T06:07:02.128Z,97545.00
2023-01-15T06:09:49.819Z,97544.00
2023-01-15T06:12:37.405Z,97544.00
2023-01-15T06:15:25.085Z,97537.00
2023-01-15T06:18:12.771Z,97529.00
2023-01-15T06:21:06.569Z,97524.00
2023-01-15T06:23:54.690Z,97519.00
2023-01-15T06:26:42.208Z,97525.00
2023-01-15T06:29:30.191Z,97519.00
2023-01-15T06:32:17.873Z,97523.00
2023-01-15T06:35:05.925Z,97527.00
2023-01-15T06:37:53.623Z,97532.00
2023-01-15T06:40:41.088Z,97503.00
2023-01-15T06:43:48.107Z,97492.00
2023-01-15T06:46:54.095Z,97519.00
2023-01-15T06:49:41.729Z,97513.00
2023-01-15T06:52:30.599Z,97490.00
2023-01-15T06:55:19.250Z,97494.00
2023-01-15T06:58:06.728Z,97505.00
2023-01-15T07:00:56.378Z,97492.00
2023-01-15T07:03:44.031Z,97488.00
2023-01-15T07:06:32.436Z,97479.00
2023-01-15T07:09:20.042Z,97459.00
2023-01-15T07:12:07.704Z,97475.00
2023-01-15T07:14:55.354Z,97505.00
2023-01-15T07:17:42.911Z,97496.00
2023-01-15T07:20:30.604Z,97474.00
2023-01-15T07:23:18.074Z,97486.00
2023-01-15T07:26:05.877Z,97482.00
2023-01-15T07:28:53.749Z,97480.00
2023-01-15T07:31:44.592Z,97501.00
2023-01-15T07:34:32.329Z,97478.00
2023-01-15T07:37:19.824Z,97479.00
2023-01-15T07:40:08.323Z,97521.00
2023-01-15T07:43:15.407Z,97503.00
2023-01-15T07:46:22.129Z,97539.00
2023-01-15T07:49:30.278Z,97523.00
2023-01-15T07:52:20.200Z,97511.00
2023-01-15T07:55:09.464Z,97537.00
2023-01-15T07:57:57.364Z,97538.00
2023-01-15T08:00:44.975Z,97527.00
2023-01-15T08:03:32.616Z,97544.00
2023-01-15T08:06:20.202Z,97552.00
2023-01-15T08:09:07.726Z,97536.00
2023-01-15T08:12:14.080Z,97560.00
2023-01-15T08:15:14.189Z,97559.00
2023-01-15T08:18:02.195Z,97549.00
2023-01-15T08:20:49.793Z,97572.00
2023-01-15T08:23:37.325Z,97557.00
2023-01-15T08:26:25.015Z,97530.00
2023-01-15T08:29:12.607Z,97513.00
2023-01-15T08:32:03.079Z,97503.00
2023-01-15T08:34:50.751Z,97509.00
2023-01-15T08:37:38.422Z,97502.00
2023-01-15T08:40:25.968Z,97492.00
2023-01-15T08:43:13.568Z,97495.00
2023-01-15T08:46:04.780Z,97500.00
2023-01-15T08:48:53.486Z,97489.00
2023-01-15T08:51:41.065Z,97495.00
2023-01-15T08:54:28.689Z,97481.00
2023-01-15T08:57:16.246Z,97493.00
2023-01-15T09:00:05.448Z,97497.00
2023-01-15T09:02:52.940Z,97495.00
2023-01-15T09:05:40.979Z,97486.00
2023-01-15T09:08:30.096Z,97488.00
2023-01-15T09:11:17.751Z,97494.00
2023-01-15T09:14:05.428Z,97484.00
2023-01-15T09:16:52.942Z,97496.00
2023-01-15T09:19:40.680Z,97497.00
2023-01-15T09:22:31.082Z,97496.00
2023-01-15T09:25:20.180Z,97497.00
2023-01-15T09:28:07.993Z,97488.00
2023-01-15T09:30:56.307Z,97477.00
2023-01-15T09:33:43.886Z,97484.00
2023-01-15T09:36:34.872Z,97496.00
2023-01-15T09:39:22.464Z,97477.00
2023-01-15T09:42:26.376Z,97481.00
2023-01-15T09:45:42.678Z,97486.00
2023-01-15T09:49:06.665Z,97485.00
2023-01-15T09:52:37.804Z,97500.00
2023-01-15T09:55:34.276Z,97486.00
2023-01-15T09:58:36.544Z,97480.00
2023-01-15T10:01:33.698Z,97490.00
2023-01-15T10:04:43.808Z,97477.00
2023-01-15T10:08:03.726Z,97484.00
2023-01-15T10:11:01.629Z,97434.00
2023-01-15T10:14:29.123Z,97466.00
2023-01-15T10:17:35.185Z,97457.00
2023-01-15T10:20:57.584Z,97439.00
2023-01-15T10:24:09.338Z,97444.00
2023-01-15T10:26:59.790Z,97446.00
2023-01-15T10:30:01.474Z,97434.00
2023-01-15T10:33:02.491Z,97442.00
2023-01-15T10:36:16.133Z,97432.00
2023-01-15T10:39:40.181Z,97417.00
2023-01-15T10:42:52.712Z,97405.00
2023-01-15T10:45:48.463Z,97406.00
2023-01-15T10:48:50.326Z,97395.00
2023-01-15T10:51:46.770Z,97401.00
2023-01-15T10:54:49.218Z,97404.00
2023-01-15T10:58:08.910Z,97390.00
2023-01-15T11:01:07.392Z,97373.00
2023-01-15T11:03:55.256Z,97373.00
2023-01-15T11:06:43.161Z,97369.00
2023-01-15T11:09:32.519Z,97369.00
2023-01-15T11:12:47.719Z,97381.00
2023-01-15T11:15:53.960Z,97379.00
2023-01-15T11:19:04.183Z,97368.00
2023-01-15T11:21:53.784Z,97366.00
2023-01-15T11:24:53.971Z,97359.00
2023-01-15T11:27:41.759Z,97362.00
2023-01-15T11:30:38.350Z,97366.00
2023-01-15T11:33:30.315Z,97351.00
2023-01-15T11:36:25.617Z,97333.00
2023-01-15T11:39:30.945Z,97322.00
2023-01-15T11:42:37.550Z,97333.00
2023-01-15T11:45:46.762Z,97321.00
2023-01-15T11:49:07.005Z,97310.00
2023-01-15T11:51:58.961Z,97333.00
2023-01-15T11:54:51.855Z,97351.00
2023-01-15T11:57:40.792Z,97366.00
2023-01-15T12:00:38.764Z,97354.00
2023-01-15T12:03:34.504Z,97335.00
2023-01-15T12:06:24.081Z,97335.00
2023-01-15T12:09:30.305Z,97340.00
2023-01-15T12:12:46.738Z,97339.00
2023-01-15T12:16:18.080Z,97341.00
2023-01-15T12:20:01.820Z,97354.00
2023-01-15T12:23:25.956Z,97360.00
2023-01-15T12:26:35.548Z,97362.00
2023-01-15T12:29:29.809Z,97364.00
2023-01-15T12:32:25.150Z,97368.00
2023-01-15T12:35:31.850Z,97374.00
2023-01-15T12:38:46.704Z,97375.00
2023-01-15T12:42:02.262Z,97374.00
2023-01-15T12:45:02.019Z,97398.00
2023-01-15T12:48:26.134Z,97407.00
2023-01-15T12:51:27.215Z,97425.00
2023-01-15T12:54:23.636Z,97432.00
2023-01-15T12:57:31.231Z,97448.00
2023-01-15T13:00:42.978Z,97459.00
2023-01-15T13:03:45.315Z,97465.00
2023-01-15T13:06:35.662Z,97481.00
2023-01-15T13:09:48.266Z,97499.00
2023-01-15T13:12:36.496Z,97505.00
2023-01-15T13:15:33.572Z,97530.00
2023-01-15T13:18:32.389Z,97546.00
2023-01-15T13:21:21.643Z,97568.00
2023-01-15T13:24:27.664Z,97582.00
2023-01-15T13:27:29.965Z,97600.00
2023-01-15T13:30:48.010Z,97619.00
2023-01-15T13:33:46.779Z,97641.00
2023-01-15T13:36:45.687Z,97640.00
2023-01-15T13:39:43.921Z,97666.00
2023-01-15T13:42:32.763Z,97679.00
2023-01-15T13:45:28.075Z,97677.00
2023-01-15T13:48:18.782Z,97676.00
2023-01-15T13:51:17.310Z,97679.00
2023-01-15T13:54:11.084Z,97687.00
2023-01-15T13:57:34.581Z,97689.00
2023-01-15T14:00:38.246Z,97708.00
2023-01-15T14:03:32.995Z,97709.00
2023-01-15T14:06:20.630Z,97717.00
2023-01-15T14:09:34.894Z,97723.00
2023-01-15T14:12:50.215Z,97730.00
2023-01-15T14:15:49.984Z,97737.00
2023-01-15T14:19:22.295Z,97745.00
2023-01-15T14:22:34.051Z,97753.00
2023-01-15T14:25:46.038Z,97762.00
2023-01-15T14:28:52.062Z,97778.00
2023-01-15T14:31:51.200Z,97776.00
2023-01-15T14:34:40.224Z,97790.00
2023-01-15T14:37:47.005Z,97785.00
2023-01-15T14:40:36.774Z,97804.00
2023-01-15T14:43:26.128Z,97812.00
2023-01-15T14:46:41.586Z,97819.00
2023-01-15T14:49:42.444Z,97825.00
2023-01-15T14:52:30.939Z,97847.00
2023-01-15T14:55:20.993Z,97844.00
2023-01-15T14:58:36.413Z,97849.00
2023-01-15T15:01:45.119Z,97859.00
2023-01-15T15:04:51.335Z,97855.00
2023-01-15T15:07:48.076Z,97853.00
2023-01-15T15:10:43.857Z,97855.00
2023-01-15T15:13:47.626Z,97860.00
2023-01-15T15:16:48.368Z,97857.00
2023-01-15T15:19:45.442Z,97866.00
2023-01-15T15:22:34.525Z,97866.00
2023-01-15T15:25:27.727Z,97865.00
2023-01-15T15:28:15.209Z,97873.00
2023-01-15T15:31:03.445Z,97882.00
2023-01-15T15:33:50.989Z,97890.00
2023-01-15T15:36:39.613Z,97894.00
2023-01-15T15:39:44.845Z,97903.00
2023-01-15T15:43:06.290Z,97914.00
2023-01-15T15:46:15.492Z,97918.00
2023-01-15T15:49:05.765Z,97919.00
2023-01-15T15:51:56.335Z,97921.00
2023-01-15T15:54:43.789Z,97933.00
2023-01-15T15:57:35.303Z,97927.00
2023-01-15T16:00:43.607Z,97938.00
2023-01-15T16:03:33.509Z,97948.00
2023-01-15T16:06:26.050Z,97952.00
2023-01-15T16:09:13.549Z,97962.00
2023-01-15T16:12:07.452Z,97963.00
2023-01-15T16:14:56.827Z,97959.00
2023-01-15T16:17:46.100Z,97974.00
2023-01-15T16:20:34.064Z,97984.00
2023-01-15T16:23:29.021Z,97986.00
2023-01-15T16:26:23.234Z,97998.00
2023-01-15T16:29:25.894Z,97996.00
2023-01-15T16:32:17.850Z,97995.00
2023-01-15T16:35:16.217Z,98000.00
2023-01-15T16:38:05.660Z,97997.00
2023-01-15T16:40:54.119Z,97999.00
2023-01-15T16:44:01.447Z,97998.00
2023-01-15T16:47:00.362Z,97990.00
2023-01-15T16:49:47.886Z,97992.00
2023-01-15T16:53:01.993Z,97996.00
2023-01-15T16:55:50.340Z,98005.00
2023-01-15T16:58:41.518Z,98002.00
2023-01-15T17:01:35.108Z,97989.00
2023-01-15T17:04:29.908Z,97997.00
2023-01-15T17:07:29.730Z,98009.00
2023-01-15T17:10:27.276Z,98011.00
2023-01-15T17:13:20.729Z,98027.00
2023-01-15T17:16:23.164Z,98024.00
2023-01-15T17:19:11.785Z,98023.00
2023-01-15T17:21:59.356Z,98026.00
2023-01-15T17:24:49.884Z,98028.00
2023-01-15T17:27:37.447Z,98027.00
2023-01-15T17:30:31.080Z,98032.00
2023-01-15T17:33:20.776Z,98032.00
2023-01-15T17:36:10.354Z,98034.00
2023-01-15T17:38:58.028Z,98032.00
2023-01-15T17:41:45.490Z,98037.00
2023-01-15T17:44:33.011Z,98027.00
2023-01-15T17:47:20.489Z,98024.00
2023-01-15T17:50:08.643Z,98012.00
2023-01-15T17:52:56.297Z,98018.00
2023-01-15T17:56:02.489Z,98013.00
2023-01-15T17:59:08.604Z,98033.00
2023-01-15T18:02:15.108Z,98024.00
2023-01-15T18:05:21.209Z,98030.00
2023-01-15T18:08:12.623Z,98039.00
2023-01-15T18:11:00.089Z,98036.00
2023-01-15T18:13:47.664Z,98032.00
2023-01-15T18:16:35.462Z,98033.00
2023-01-15T18:19:22.998Z,98040.00
2023-01-15T18:22:12.968Z,98036.00
2023-01-15T18:25:00.534Z,98032.00
2023-01-15T18:27:48.283Z,98033.00
2023-01-15T18:30:35.812Z,98036.00
2023-01-15T18:33:23.398Z,98034.00
2023-01-15T18:36:14.159Z,98046.00
2023-01-15T18:39:06.475Z,98048.00
2023-01-15T18:41:54.004Z,98044.00
2023-01-15T18:45:00.363Z,98056.00
2023-01-15T18:47:47.865Z,98060.00
2023-01-15T18:50:35.438Z,98052.00
2023-01-15T18:53:23.334Z,98047.00
2023-01-15T18:56:10.780Z,98049.00
2023-01-15T18:58:58.274Z,98056.00
2023-01-15T19:01:46.766Z,98056.00
2023-01-15T19:04:34.549Z,98055.00
2023-01-15T19:07:22.256Z,98050.00
2023-01-15T19:10:13.107Z,98061.00
2023-01-15T19:13:03.064Z,98060.00
2023-01-15T19:16:10.049Z,98064.00
2023-01-15T19:18:57.614Z,98066.00
2023-01-15T19:21:47.138Z,98066.00
2023-01-15T19:24:35.967Z,98065.00
2023-01-15T19:27:23.979Z,98075.00
2023-01-15T19:30:12.307Z,98062.00
2023-01-15T19:32:59.925Z,98056.00
2023-01-15T19:35:47.414Z,98061.00
2023-01-15T19:38:42.688Z,98059.00
2023-01-15T19:41:49.113Z,98066.00
2023-01-15T19:44:55.308Z,98056.00
2023-01-15T19:48:03.019Z,98062.00
2023-01-15T19:50:54.486Z,98061.00
2023-01-15T19:53:42.115Z,98058.00
2023-01-15T19:56:29.604Z,98052.00
2023-01-15T19:59:17.107Z,98052.00
2023-01-15T20:02:04.664Z,98064.00
2023-01-15T20:04:52.204Z,98055.00
2023-01-15T20:07:40.508Z,98057.00
2023-01-15T20:10:32.011Z,98048.00
2023-01-15T20:13:43.148Z,98049.00
2023-01-15T20:16:30.637Z,98043.00
2023-01-15T20:19:18.104Z,98040.00
2023-01-15T20:22:05.649Z,98042.00
2023-01-15T20:24:53.859Z,98036.00
2023-01-15T20:27:42.058Z,98042.00
2023-01-15T20:30:30.059Z,98036.00
2023-01-15T20:33:17.572Z,98032.00
2023-01-15T20:36:05.900Z,98022.00
2023-01-15T20:38:53.437Z,98017.00
2023-01-15T20:41:59.551Z,98023.00
2023-01-15T20:44:55.971Z,98018.00
2023-01-15T20:48:03.259Z,98013.00
2023-01-15T20:51:02.868Z,98015.00
2023-01-15T20:53:51.877Z,98003.00
2023-01-15T20:56:39.383Z,98006.00
2023-01-15T20:59:26.920Z,98006.00
2023-01-15T21:02:14.363Z,97997.00
2023-01-15T21:05:01.844Z,97986.00
2023-01-15T21:07:49.428Z,97988.00
2023-01-15T21:10:36.972Z,97979.00
2023-01-15T21:13:24.581Z,97982.00
2023-01-15T21:16:15.019Z,97972.00
2023-01-15T21:19:05.150Z,97966.00
2023-01-15T21:21:52.713Z,97966.00
2023-01-15T21:24:40.244Z,97957.00
2023-01-15T21:27:27.839Z,97965.00
2023-01-15T21:30:15.541Z,97958.00
2023-01-15T21:33:03.194Z,97965.00
2023-01-15T21:35:50.764Z,97949.00
2023-01-15T21:38:38.715Z,97960.00
2023-01-15T21:41:46.080Z,97965.00
2023-01-15T21:44:35.889Z,97958.00
2023-01-15T21:47:23.455Z,97950.00
2023-01-15T21:50:11.471Z,97945.00
2023-01-15T21:52:58.956Z,97943.00
2023-01-15T21:55:51.030Z,97940.00
2023-01-15T21:58:40.121Z,97942.00
2023-01-15T22:01:28.001Z,97935.00
2023-01-15T22:04:15.923Z,97937.00
2023-01-15T22:07:03.914Z,97927.00
2023-01-15T22:09:51.478Z,97924.00
2023-01-15T22:12:43.057Z,97924.00
2023-01-15T22:15:30.594Z,97910.00
2023-01-15T22:18:18.066Z,97898.00
2023-01-15T22:21:07.602Z,97905.00
2023-01-15T22:23:55.352Z,97910.00
2023-01-15T22:26:43.812Z,97897.00
2023-01-15T22:29:38.326Z,97888.00
2023-01-15T22:32:25.821Z,97890.00
2023-01-15T22:35:13.415Z,97883.00
2023-01-15T22:38:00.944Z,97889.00
2023-01-15T22:40:48.379Z,97885.00
2023-01-15T22:43:36.313Z,97881.00
2023-01-15T22:46:23.836Z,97870.00
2023-01-15T22:49:11.615Z,97865.00
2023-01-15T22:51:59.202Z,97868.00
2023-01-15T22:54:47.848Z,97873.00
2023-01-15T22:57:36.491Z,97878.00
2023-01-15T23:00:24.186Z,97864.00
2023-01-15T23:03:11.759Z,97858.00
2023-01-15T23:06:08.080Z,97853.00
2023-01-15T23:08:59.330Z,97862.00
2023-01-15T23:11:46.985Z,97849.00
2023-01-15T23:14:34.545Z,97844.00
2023-01-15T23:17:22.020Z,97838.00
2023-01-15T23:20:11.571Z,97829.00
2023-01-15T23:22:59.086Z,97832.00
2023-01-15T23:25:46.665Z,97827.00
2023-01-15T23:28:36.060Z,97813.00
2023-01-15T23:31:26.034Z,97809.00
2023-01-15T23:34:13.754Z,97812.00
2023-01-15T23:37:01.341Z,97816.00
2023-01-15T23:39:48.772Z,97799.00
2023-01-15T23:42:55.189Z,97804.00
2023-01-15T23:46:18.227Z,97800.00
2023-01-15T23:49:11.854Z,97787.00
2023-01-15T23:51:59.752Z,97790.00
2023-01-15T23:54:47.267Z,97787.00
2023-01-15T23:57:34.751Z,97769.00
